createdAt,value
2022-07-26T00:01:35.065Z,20.40
2022-07-26T00:04:11.952Z,20.07
2022-07-26T00:06:42.603Z,20.50
2022-07-26T00:09:13.086Z,21.00
2022-07-26T00:11:45.866Z,22.20
2022-07-26T00:14:16.926Z,21.00
2022-07-26T00:17:07.631Z,21.17
2022-07-26T00:19:45.905Z,20.97
2022-07-26T00:22:35.834Z,21.83
2022-07-26T00:25:13.466Z,21.10
2022-07-26T00:27:45.641Z,20.90
2022-07-26T00:30:20.391Z,21.00
2022-07-26T00:33:03.860Z,20.70
2022-07-26T00:35:36.983Z,21.20
2022-07-26T00:38:15.178Z,20.80
2022-07-26T00:40:56.482Z,22.40
2022-07-26T00:43:37.784Z,20.97
2022-07-26T00:46:11.827Z,20.90
2022-07-26T00:48:50.439Z,20.73
2022-07-26T00:51:41.666Z,21.13
2022-07-26T00:54:26.393Z,20.87
2022-07-26T00:56:59.749Z,20.93
2022-07-26T00:59:29.901Z,21.33
2022-07-26T01:02:10.500Z,21.13
2022-07-26T01:05:10.484Z,20.87
2022-07-26T01:07:40.338Z,21.00
2022-07-26T01:10:15.531Z,20.87
2022-07-26T01:15:34.097Z,20.80
2022-07-26T01:18:03.869Z,22.23
2022-07-26T01:20:40.359Z,20.80
2022-07-26T01:23:15.925Z,20.90
2022-07-26T01:25:48.268Z,21.13
2022-07-26T01:28:20.485Z,21.90
2022-07-26T01:30:50.613Z,22.00
2022-07-26T01:33:31.972Z,20.77
2022-07-26T01:36:01.213Z,20.30
2022-07-26T01:38:43.655Z,20.30
2022-07-26T01:41:37.474Z,20.93
2022-07-26T01:44:14.256Z,20.40
2022-07-26T01:46:47.554Z,20.30
2022-07-26T01:49:28.403Z,21.23
2022-07-26T01:52:05.252Z,21.03
2022-07-26T01:54:37.901Z,21.00
2022-07-26T01:57:16.655Z,21.60
2022-07-26T01:59:45.886Z,22.90
2022-07-26T02:02:19.305Z,22.50
2022-07-26T02:05:04.998Z,23.10
2022-07-26T02:07:45.826Z,24.10
2022-07-26T02:10:22.740Z,22.33
2022-07-26T02:12:54.750Z,24.00
2022-07-26T02:15:35.669Z,22.50
2022-07-26T02:18:14.459Z,24.27
2022-07-26T02:20:50.165Z,23.40
2022-07-26T02:23:27.286Z,23.27
2022-07-26T02:26:08.050Z,23.60
2022-07-26T02:28:48.169Z,21.80
2022-07-26T02:31:23.327Z,21.97
2022-07-26T02:34:09.341Z,21.50
2022-07-26T02:36:54.157Z,20.93
2022-07-26T02:39:36.923Z,20.90
2022-07-26T02:42:22.689Z,20.30
2022-07-26T02:44:54.413Z,20.90
2022-07-26T02:47:54.736Z,20.67
2022-07-26T02:50:34.104Z,20.20
2022-07-26T02:53:20.559Z,20.07
2022-07-26T02:55:51.782Z,20.00
2022-07-26T02:58:38.551Z,19.53
2022-07-26T03:01:19.799Z,20.10
2022-07-26T03:04:00.476Z,20.03
2022-07-26T03:06:29.683Z,19.67
2022-07-26T03:09:01.933Z,20.70
2022-07-26T03:11:51.888Z,20.20
2022-07-26T03:14:26.839Z,20.60
2022-07-26T03:17:06.594Z,20.17
2022-07-26T03:19:39.724Z,20.30
2022-07-26T03:22:10.339Z,19.93
2022-07-26T03:24:58.184Z,20.93
2022-07-26T03:27:32.294Z,21.03
2022-07-26T03:30:26.668Z,21.20
2022-07-26T03:32:55.761Z,21.70
2022-07-26T03:35:38.352Z,21.37
2022-07-26T03:38:11.268Z,21.77
2022-07-26T03:40:46.362Z,20.90
2022-07-26T03:43:17.402Z,21.67
2022-07-26T03:45:54.588Z,22.93
2022-07-26T03:48:29.590Z,23.03
2022-07-26T03:51:01.496Z,24.17
2022-07-26T03:53:30.165Z,23.40
2022-07-26T03:56:19.570Z,23.17
2022-07-26T03:59:07.905Z,24.50
2022-07-26T04:01:46.434Z,23.93
2022-07-26T04:04:25.202Z,24.43
2022-07-26T04:07:03.181Z,24.43
2022-07-26T04:09:49.455Z,24.80
2022-07-26T04:12:22.654Z,25.80
2022-07-26T04:15:01.868Z,24.87
2022-07-26T04:21:17.705Z,26.17
2022-07-26T04:24:17.894Z,51.40
2022-07-26T04:27:07.264Z,26.87
2022-07-26T04:29:43.851Z,27.67
2022-07-26T04:32:20.322Z,29.10
2022-07-26T04:34:58.138Z,28.67
2022-07-26T04:37:44.374Z,32.40
2022-07-26T04:40:26.176Z,28.50
2022-07-26T04:43:03.841Z,29.13
2022-07-26T04:45:51.142Z,29.83
2022-07-26T04:48:23.509Z,31.30
2022-07-26T04:51:00.800Z,29.73
2022-07-26T04:53:44.586Z,30.97
2022-07-26T04:56:22.574Z,31.33
2022-07-26T04:58:54.080Z,30.00
2022-07-26T05:01:45.271Z,30.30
2022-07-26T05:04:16.702Z,27.80
2022-07-26T05:07:03.082Z,27.60
2022-07-26T05:09:38.154Z,26.83
2022-07-26T05:12:14.190Z,26.77
2022-07-26T05:14:53.996Z,27.03
2022-07-26T05:17:35.776Z,27.67
2022-07-26T05:20:08.661Z,27.90
2022-07-26T05:22:38.838Z,26.63
2022-07-26T05:25:22.393Z,24.67
2022-07-26T05:27:55.165Z,24.87
2022-07-26T05:30:31.412Z,24.50
2022-07-26T05:33:01.428Z,23.27
2022-07-26T05:35:33.912Z,24.10
2022-07-26T05:38:09.143Z,24.07
2022-07-26T05:40:56.905Z,23.33
2022-07-26T05:43:55.216Z,22.70
2022-07-26T05:46:30.447Z,22.50
2022-07-26T05:49:11.226Z,22.23
2022-07-26T05:51:52.644Z,22.07
2022-07-26T05:54:23.025Z,21.57
2022-07-26T05:57:04.674Z,21.17
2022-07-26T05:59:39.611Z,21.10
2022-07-26T06:02:13.128Z,21.03
2022-07-26T06:04:52.386Z,21.13
2022-07-26T06:07:21.391Z,20.83
2022-07-26T06:09:56.776Z,21.60
2022-07-26T06:12:32.648Z,21.40
2022-07-26T06:15:05.169Z,21.50
2022-07-26T06:17:49.504Z,21.57
2022-07-26T06:20:22.220Z,20.63
2022-07-26T06:22:58.880Z,20.47
2022-07-26T06:25:34.515Z,21.00
2022-07-26T06:28:15.225Z,20.60
2022-07-26T06:30:56.102Z,20.87
2022-07-26T06:33:31.780Z,20.47
2022-07-26T06:36:12.957Z,20.93
2022-07-26T06:38:49.054Z,21.10
2022-07-26T06:41:24.587Z,21.27
2022-07-26T06:44:18.137Z,20.80
2022-07-26T06:46:56.071Z,21.70
2022-07-26T06:49:29.052Z,21.80
2022-07-26T06:52:01.259Z,21.63
2022-07-26T06:54:42.419Z,21.90
2022-07-26T06:57:21.613Z,22.07
2022-07-26T07:00:19.422Z,22.03
2022-07-26T07:03:00.343Z,21.87
2022-07-26T07:05:39.054Z,22.40
2022-07-26T07:08:10.335Z,21.80
2022-07-26T07:10:45.929Z,22.77
2022-07-26T07:13:17.257Z,23.50
2022-07-26T07:15:59.844Z,22.57
2022-07-26T07:18:41.354Z,22.60
2022-07-26T07:21:14.833Z,23.77
2022-07-26T07:23:59.966Z,25.37
2022-07-26T07:29:43.320Z,28.30
2022-07-26T07:32:26.582Z,31.60
2022-07-26T07:35:12.671Z,31.63
2022-07-26T07:37:54.232Z,31.80
2022-07-26T07:40:27.168Z,28.60
2022-07-26T07:43:15.723Z,27.57
2022-07-26T07:48:51.113Z,26.60
2022-07-26T07:51:30.628Z,26.90
2022-07-26T07:54:13.855Z,27.30
2022-07-26T07:57:02.604Z,25.37
2022-07-26T07:59:39.498Z,26.70
2022-07-26T08:02:20.377Z,26.90
2022-07-26T08:04:54.684Z,28.63
2022-07-26T08:07:36.238Z,28.33
2022-07-26T08:10:14.781Z,28.00
2022-07-26T08:12:51.645Z,29.53
2022-07-26T08:15:39.807Z,26.50
2022-07-26T08:18:22.329Z,25.97
2022-07-26T08:21:15.427Z,22.20
2022-07-26T08:23:56.633Z,24.07
2022-07-26T08:26:41.949Z,23.13
2022-07-26T08:29:18.914Z,22.90
2022-07-26T08:32:01.986Z,22.60
2022-07-26T08:34:39.774Z,22.00
2022-07-26T08:37:17.826Z,22.07
2022-07-26T08:39:51.030Z,22.43
2022-07-26T08:45:03.835Z,21.30
2022-07-26T08:48:16.630Z,21.40
2022-07-26T08:50:44.176Z,20.37
2022-07-26T08:53:21.023Z,20.10
2022-07-26T08:56:07.198Z,20.90
2022-07-26T08:58:44.154Z,21.20
2022-07-26T09:01:19.829Z,20.87
2022-07-26T09:03:58.983Z,20.00
2022-07-26T09:07:11.143Z,20.40
2022-07-26T09:10:11.748Z,20.80
2022-07-26T09:12:44.123Z,20.90
2022-07-26T09:15:32.603Z,19.97
2022-07-26T09:18:34.003Z,20.33
2022-07-26T09:21:38.624Z,20.13
2022-07-26T09:24:44.825Z,19.50
2022-07-26T09:27:27.974Z,20.50
2022-07-26T09:30:13.304Z,20.20
2022-07-26T09:33:25.183Z,19.60
2022-07-26T09:36:28.237Z,19.20
2022-07-26T09:39:34.748Z,19.80
2022-07-26T09:42:33.543Z,19.60
2022-07-26T09:45:18.040Z,19.53
2022-07-26T09:47:55.040Z,19.60
2022-07-26T09:50:30.166Z,19.53
2022-07-26T09:53:02.185Z,19.73
2022-07-26T09:55:41.038Z,19.97
2022-07-26T09:58:45.711Z,20.07
2022-07-26T10:01:17.896Z,19.57
2022-07-26T10:03:52.497Z,19.57
2022-07-26T10:06:21.152Z,19.23
2022-07-26T10:09:10.487Z,19.30
2022-07-26T10:12:00.685Z,19.90
2022-07-26T10:14:48.413Z,20.17
2022-07-26T10:17:49.524Z,20.63
2022-07-26T10:20:45.753Z,19.90
2022-07-26T10:23:38.722Z,19.70
2022-07-26T10:26:10.127Z,19.87
2022-07-26T10:29:21.915Z,19.83
2022-07-26T10:32:21.473Z,19.90
2022-07-26T10:35:44.418Z,20.30
2022-07-26T10:38:29.777Z,19.77
2022-07-26T10:41:43.542Z,19.70
2022-07-26T10:44:23.081Z,20.43
2022-07-26T10:47:23.350Z,19.17
2022-07-26T10:50:45.957Z,19.37
2022-07-26T10:53:37.660Z,18.93
2022-07-26T10:56:08.816Z,19.97
2022-07-26T10:58:44.163Z,20.70
2022-07-26T11:01:20.223Z,20.07
2022-07-26T11:03:50.913Z,20.23
2022-07-26T11:06:32.202Z,19.90
2022-07-26T11:09:21.682Z,19.93
2022-07-26T11:12:23.423Z,20.03
2022-07-26T11:15:15.103Z,19.77
2022-07-26T11:18:22.574Z,20.27
2022-07-26T11:20:56.749Z,20.30
2022-07-26T11:23:30.856Z,19.90
2022-07-26T11:26:33.617Z,20.00
2022-07-26T11:29:06.610Z,20.07
2022-07-26T11:31:57.887Z,20.70
2022-07-26T11:34:38.669Z,20.47
2022-07-26T11:37:08.477Z,20.00
2022-07-26T11:39:46.095Z,19.77
2022-07-26T11:42:19.849Z,19.87
2022-07-26T11:45:14.255Z,20.50
2022-07-26T11:47:51.838Z,19.90
2022-07-26T11:50:23.358Z,24.10
2022-07-26T11:52:54.568Z,20.53
2022-07-26T11:55:56.216Z,20.30
2022-07-26T11:58:32.169Z,20.00
2022-07-26T12:01:03.068Z,20.30
2022-07-26T12:03:41.985Z,20.83
2022-07-26T12:06:29.258Z,20.60
2022-07-26T12:09:05.079Z,20.50
2022-07-26T12:11:47.812Z,21.33
2022-07-26T12:14:27.436Z,21.30
2022-07-26T12:17:17.136Z,21.17
2022-07-26T12:19:46.435Z,21.00
2022-07-26T12:22:17.505Z,21.23
2022-07-26T12:24:48.371Z,22.10
2022-07-26T12:27:23.595Z,20.70
2022-07-26T12:29:55.822Z,20.57
2022-07-26T12:32:25.397Z,21.47
2022-07-26T12:35:00.453Z,20.60
2022-07-26T12:37:39.999Z,20.83
2022-07-26T12:40:12.847Z,20.83
2022-07-26T12:42:43.622Z,21.20
2022-07-26T12:45:15.322Z,20.90
2022-07-26T12:47:47.532Z,20.73
2022-07-26T12:50:17.677Z,21.30
2022-07-26T12:52:53.011Z,21.80
2022-07-26T12:55:22.400Z,20.90
2022-07-26T12:57:50.784Z,21.17
2022-07-26T13:00:28.637Z,20.80
2022-07-26T13:02:58.884Z,20.33
2022-07-26T13:05:28.241Z,19.93
2022-07-26T13:08:08.706Z,20.77
2022-07-26T13:10:37.291Z,20.00
2022-07-26T13:13:06.177Z,20.60
2022-07-26T13:15:44.698Z,19.57
2022-07-26T13:18:15.194Z,19.40
2022-07-26T13:20:44.803Z,19.37
2022-07-26T13:23:15.802Z,19.30
2022-07-26T13:25:51.310Z,19.00
2022-07-26T13:28:23.036Z,19.10
2022-07-26T13:30:52.910Z,19.60
2022-07-26T13:33:22.692Z,20.03
2022-07-26T13:35:51.191Z,18.80
2022-07-26T13:38:20.470Z,18.80
2022-07-26T13:40:50.471Z,19.50
2022-07-26T13:43:18.981Z,19.57
2022-07-26T13:45:48.418Z,19.53
2022-07-26T13:48:18.181Z,18.87
2022-07-26T13:50:46.838Z,19.33
2022-07-26T13:53:15.613Z,19.07
2022-07-26T13:55:44.058Z,20.80
2022-07-26T13:58:12.423Z,20.10
2022-07-26T14:00:42.078Z,20.20
2022-07-26T14:03:10.530Z,19.63
2022-07-26T14:05:41.379Z,19.30
2022-07-26T14:08:09.756Z,19.30
2022-07-26T14:10:39.914Z,19.00
2022-07-26T14:13:08.457Z,19.33
2022-07-26T14:15:37.417Z,19.10
2022-07-26T14:18:06.052Z,19.07
2022-07-26T14:20:44.150Z,19.40
2022-07-26T14:23:13.464Z,19.40
2022-07-26T14:25:43.798Z,19.10
2022-07-26T14:28:12.213Z,20.10
2022-07-26T14:30:41.032Z,20.60
2022-07-26T14:33:09.746Z,19.50
2022-07-26T14:35:38.207Z,19.77
2022-07-26T14:38:08.206Z,19.80
2022-07-26T14:40:37.315Z,20.07
2022-07-26T14:43:07.160Z,19.50
2022-07-26T14:45:35.608Z,20.60
2022-07-26T14:48:09.931Z,19.60
2022-07-26T14:50:53.359Z,19.47
2022-07-26T14:53:29.059Z,19.23
2022-07-26T14:55:58.440Z,18.80
2022-07-26T14:58:32.844Z,18.80
2022-07-26T15:01:01.455Z,19.00
2022-07-26T15:03:31.057Z,18.97
2022-07-26T15:06:00.519Z,19.23
2022-07-26T15:08:31.291Z,19.40
2022-07-26T15:11:01.044Z,19.20
2022-07-26T15:13:31.484Z,18.67
2022-07-26T15:16:02.345Z,18.73
2022-07-26T15:18:32.353Z,19.00
2022-07-26T15:21:00.924Z,19.00
2022-07-26T15:23:30.677Z,19.47
2022-07-26T15:25:58.980Z,18.73
2022-07-26T15:28:27.321Z,19.03
2022-07-26T15:30:56.027Z,18.60
2022-07-26T15:33:24.382Z,18.50
2022-07-26T15:35:55.384Z,18.40
2022-07-26T15:38:25.002Z,18.37
2022-07-26T15:40:54.804Z,18.40
2022-07-26T15:43:48.035Z,19.03
2022-07-26T15:46:13.258Z,19.40
2022-07-26T15:48:44.314Z,18.73
2022-07-26T15:51:15.731Z,18.93
2022-07-26T15:53:46.658Z,18.63
2022-07-26T15:56:16.771Z,19.00
2022-07-26T15:58:45.045Z,19.37
2022-07-26T16:01:14.495Z,20.53
2022-07-26T16:03:42.944Z,18.93
2022-07-26T16:06:11.377Z,18.67
2022-07-26T16:08:58.919Z,18.50
2022-07-26T16:11:30.926Z,18.30
2022-07-26T16:14:01.808Z,19.40
2022-07-26T16:16:30.874Z,18.93
2022-07-26T16:18:59.671Z,19.00
2022-07-26T16:21:28.151Z,18.53
2022-07-26T16:23:56.456Z,18.40
2022-07-26T16:26:25.926Z,18.60
2022-07-26T16:28:55.789Z,18.57
2022-07-26T16:31:25.248Z,18.80
2022-07-26T16:33:53.743Z,18.53
2022-07-26T16:36:24.040Z,18.40
2022-07-26T16:38:55.508Z,18.53
2022-07-26T16:41:25.023Z,18.40
2022-07-26T16:43:53.135Z,18.53
2022-07-26T16:46:23.546Z,19.20
2022-07-26T16:48:57.805Z,19.40
2022-07-26T16:51:26.299Z,18.57
2022-07-26T16:53:55.313Z,19.10
2022-07-26T16:56:23.812Z,19.40
2022-07-26T16:58:53.127Z,19.63
2022-07-26T17:01:25.872Z,19.20
2022-07-26T17:03:54.326Z,19.20
2022-07-26T17:06:24.120Z,18.80
2022-07-26T17:08:52.601Z,19.07
2022-07-26T17:11:21.214Z,19.50
2022-07-26T17:13:49.677Z,19.07
2022-07-26T17:16:24.191Z,19.23
2022-07-26T17:18:54.857Z,19.00
2022-07-26T17:21:23.551Z,18.63
2022-07-26T17:23:52.425Z,19.43
2022-07-26T17:26:21.992Z,19.50
2022-07-26T17:28:50.967Z,19.67
2022-07-26T17:31:20.218Z,21.20
2022-07-26T17:33:50.634Z,19.37
2022-07-26T17:36:29.727Z,19.53
2022-07-26T17:39:02.376Z,19.20
2022-07-26T17:41:32.593Z,19.50
2022-07-26T17:44:03.200Z,19.73
2022-07-26T17:46:32.835Z,18.87
2022-07-26T17:49:03.558Z,18.70
2022-07-26T17:51:35.433Z,18.87
2022-07-26T17:54:03.834Z,18.60
2022-07-26T17:56:32.506Z,18.60
2022-07-26T17:59:00.932Z,19.83
2022-07-26T18:01:30.530Z,19.63
2022-07-26T18:03:58.942Z,19.10
2022-07-26T18:06:27.344Z,19.30
2022-07-26T18:09:01.610Z,19.70
2022-07-26T18:11:32.236Z,19.57
2022-07-26T18:14:00.599Z,19.07
2022-07-26T18:16:37.571Z,19.53
2022-07-26T18:19:07.261Z,19.70
2022-07-26T18:21:36.962Z,19.50
2022-07-26T18:24:16.993Z,19.40
2022-07-26T18:26:49.187Z,19.50
2022-07-26T18:29:17.599Z,19.43
2022-07-26T18:31:47.173Z,20.10
2022-07-26T18:34:16.683Z,20.50
2022-07-26T18:36:45.055Z,20.00
2022-07-26T18:39:23.686Z,21.27
2022-07-26T18:41:54.961Z,20.10
2022-07-26T18:44:23.319Z,20.77
2022-07-26T18:46:56.311Z,20.00
2022-07-26T18:49:30.785Z,19.90
2022-07-26T18:52:05.878Z,19.90
2022-07-26T18:54:40.470Z,20.47
2022-07-26T18:57:10.759Z,19.60
2022-07-26T18:59:39.290Z,19.70
2022-07-26T19:02:10.054Z,20.40
2022-07-26T19:04:38.865Z,19.30
2022-07-26T19:07:07.439Z,20.03
2022-07-26T19:09:39.207Z,19.70
2022-07-26T19:12:17.874Z,19.50
2022-07-26T19:14:47.345Z,19.50
2022-07-26T19:17:15.807Z,19.80
2022-07-26T19:19:44.306Z,20.30
2022-07-26T19:22:13.973Z,19.07
2022-07-26T19:24:43.911Z,19.63
2022-07-26T19:27:15.889Z,20.53
2022-07-26T19:29:45.364Z,20.37
2022-07-26T19:32:13.870Z,20.43
2022-07-26T19:34:42.317Z,21.13
2022-07-26T19:37:13.136Z,21.73
2022-07-26T19:39:44.142Z,22.30
2022-07-26T19:42:12.587Z,21.67
2022-07-26T19:44:41.047Z,22.80
2022-07-26T19:47:10.431Z,20.80
2022-07-26T19:49:40.340Z,21.20
2022-07-26T19:52:11.867Z,20.47
2022-07-26T19:54:41.152Z,20.50
2022-07-26T19:57:12.973Z,21.47
2022-07-26T20:00:05.922Z,21.80
2022-07-26T20:02:53.514Z,23.10
2022-07-26T20:05:22.567Z,27.13
2022-07-26T20:07:57.366Z,23.80
2022-07-26T20:10:32.313Z,24.57
2022-07-26T20:13:06.338Z,21.87
2022-07-26T20:15:35.025Z,22.70
2022-07-26T20:18:07.020Z,22.70
2022-07-26T20:20:36.196Z,22.40
2022-07-26T20:23:13.868Z,22.17
2022-07-26T20:26:24.325Z,21.57
2022-07-26T20:29:07.802Z,21.90
2022-07-26T20:31:42.712Z,21.40
2022-07-26T20:34:28.757Z,21.83
2022-07-26T20:36:57.426Z,21.80
2022-07-26T20:39:28.138Z,21.70
2022-07-26T20:42:02.981Z,21.00
2022-07-26T20:44:34.028Z,20.60
2022-07-26T20:47:03.228Z,21.20
2022-07-26T20:49:35.205Z,21.67
2022-07-26T20:52:26.990Z,21.53
2022-07-26T20:55:01.643Z,21.27
2022-07-26T20:57:36.607Z,21.00
2022-07-26T21:00:11.242Z,21.63
2022-07-26T21:03:39.187Z,21.20
2022-07-26T21:06:09.826Z,22.00
2022-07-26T21:08:54.817Z,22.13
2022-07-26T21:11:29.518Z,22.90
2022-07-26T21:14:10.151Z,20.53
2022-07-26T21:16:55.209Z,20.30
2022-07-26T21:19:32.983Z,20.30
2022-07-26T21:22:04.550Z,20.07
2022-07-26T21:24:32.999Z,20.07
2022-07-26T21:27:36.435Z,19.77
2022-07-26T21:30:20.258Z,20.73
2022-07-26T21:32:50.333Z,20.73
2022-07-26T21:35:38.958Z,28.13
2022-07-26T21:38:46.325Z,20.20
2022-07-26T21:41:52.362Z,20.30
2022-07-26T21:44:20.946Z,19.93
2022-07-26T21:47:08.213Z,19.70
2022-07-26T21:49:46.240Z,20.50
2022-07-26T21:52:38.564Z,20.70
2022-07-26T21:55:17.889Z,20.07
2022-07-26T21:57:50.429Z,19.90
2022-07-26T22:00:20.040Z,19.97
2022-07-26T22:02:52.333Z,19.60
2022-07-26T22:05:38.305Z,19.47
2022-07-26T22:08:33.271Z,19.13
2022-07-26T22:11:06.059Z,19.80
2022-07-26T22:13:34.719Z,19.83
2022-07-26T22:16:08.905Z,19.60
2022-07-26T22:18:54.521Z,19.40
2022-07-26T22:21:31.591Z,19.70
2022-07-26T22:24:51.895Z,21.10
2022-07-26T22:27:21.698Z,21.17
2022-07-26T22:30:11.332Z,19.70
2022-07-26T22:32:40.796Z,20.70
2022-07-26T22:35:12.858Z,20.50
2022-07-26T22:37:48.817Z,20.30
2022-07-26T22:40:20.544Z,21.00
2022-07-26T22:43:21.937Z,21.00
2022-07-26T22:45:52.642Z,22.00
2022-07-26T22:48:48.170Z,19.90
2022-07-26T22:51:27.088Z,19.70
2022-07-26T22:54:02.885Z,20.77
2022-07-26T22:57:10.770Z,20.17
2022-07-26T22:59:51.438Z,20.23
2022-07-26T23:02:57.172Z,20.20
2022-07-26T23:05:45.211Z,19.87
2022-07-26T23:08:44.202Z,19.80
2022-07-26T23:11:18.258Z,19.53
2022-07-26T23:14:02.299Z,19.40
2022-07-26T23:16:44.451Z,19.93
2022-07-26T23:19:34.776Z,20.07
2022-07-26T23:22:05.351Z,20.20
2022-07-26T23:24:34.022Z,19.37
2022-07-26T23:27:04.245Z,20.57
2022-07-26T23:29:42.562Z,20.67
2022-07-26T23:32:34.619Z,20.47
2022-07-26T23:35:34.356Z,20.40
2022-07-26T23:38:10.290Z,20.90
2022-07-26T23:40:41.068Z,20.53
2022-07-26T23:43:18.747Z,20.60
2022-07-26T23:46:12.955Z,21.37
2022-07-26T23:49:00.604Z,20.70
2022-07-26T23:51:31.248Z,20.70
2022-07-26T23:54:01.770Z,22.33
2022-07-26T23:56:33.346Z,20.50
2022-07-26T23:59:13.625Z,21.60
